Etusivu
METAR-TAF:

METAR-TAF

Lentoasemat :

Pittsfield Penstone Municipal Airport

Pittsfield, Illinois, Yhdysvallat

Leveyspiiri: 39-38-20N, Pituuspiiri: 090-46-42W, korkeus merenpinnasta: 216 m

Tämänhetkinen sää

Tämä raportti tehtiin 19 minuuttia sitten, kello 16.55 UTC
Tuuli 11 kn etelästä puuskistuen 16 kn:hen
Lämpötila -4°C
Kosteus 63%
Ilmanpaine 1022 hPa
Näkyvyys: 16.1 km
selkeää

METAR: KPPQ 131655Z AUTO 19011G16KT 10SM CLR M04/M10 A3019 RMK AO2 T10361105

Aika: 11:14 (17:14 UTC)


TAF: puuttuu

Säähavainnot ja -ennusteet yli 4000 lentoasemalta (METAR- ja TAF-raportit).

Käytössä olevat sääasemat on merkitty karttaan keltaisilla ja punaisilla pisteillä.

Aseta hiiri pisteen päälle nähdäksesi sääaseman nimen.

Klikkaa sitten nähdäksesi säähavainnot ja -ennusteet.

Kartan vaihtaminen: klikkaa mustalla rastilla varustettuja vihreitä pisteitä, niin voit zoomata sisään; viivalla varustettua vihreää pistettä, niin voit zoomata ulos tai vihreitä nuolia, niin pääset viereisille kartoille.


METAR-TAF: